sensor_id;sensor_type;location;lat;lon;timestamp;P1;durP1;ratioP1;P2;durP2;ratioP2
33714;SDS011;20043;50.998;4.754;2023-04-01T00:01:18;13.30;;;2.50;;
33714;SDS011;20043;50.998;4.754;2023-04-01T00:03:44;8.50;;;2.10;;
33714;SDS011;20043;50.998;4.754;2023-04-01T00:06:11;10.85;;;2.63;;
33714;SDS011;20043;50.998;4.754;2023-04-01T00:08:39;10.65;;;2.30;;
33714;SDS011;20043;50.998;4.754;2023-04-01T00:11:04;13.30;;;2.63;;
33714;SDS011;20043;50.998;4.754;2023-04-01T00:13:30;9.73;;;2.60;;
33714;SDS011;20043;50.998;4.754;2023-04-01T00:15:56;12.80;;;2.45;;
33714;SDS011;20043;50.998;4.754;2023-04-01T00:18:22;10.20;;;2.30;;
33714;SDS011;20043;50.998;4.754;2023-04-01T00:20:49;10.40;;;2.15;;
33714;SDS011;20043;50.998;4.754;2023-04-01T00:23:15;8.23;;;2.28;;
33714;SDS011;20043;50.998;4.754;2023-04-01T00:25:42;9.55;;;2.45;;
33714;SDS011;20043;50.998;4.754;2023-04-01T00:28:08;8.93;;;2.38;;
33714;SDS011;20043;50.998;4.754;2023-04-01T00:30:35;11.02;;;2.75;;
33714;SDS011;20043;50.998;4.754;2023-04-01T00:33:01;12.35;;;2.38;;
33714;SDS011;20043;50.998;4.754;2023-04-01T00:35:27;12.50;;;2.63;;
33714;SDS011;20043;50.998;4.754;2023-04-01T00:37:52;6.82;;;2.35;;
33714;SDS011;20043;50.998;4.754;2023-04-01T00:40:24;12.18;;;2.60;;
33714;SDS011;20043;50.998;4.754;2023-04-01T00:42:57;11.43;;;2.65;;
33714;SDS011;20043;50.998;4.754;2023-04-01T00:45:25;8.43;;;2.30;;
33714;SDS011;20043;50.998;4.754;2023-04-01T00:47:54;11.02;;;2.47;;
33714;SDS011;20043;50.998;4.754;2023-04-01T00:50:21;8.48;;;2.35;;
33714;SDS011;20043;50.998;4.754;2023-04-01T00:52:49;11.98;;;2.63;;
33714;SDS011;20043;50.998;4.754;2023-04-01T00:55:15;11.35;;;2.55;;
33714;SDS011;20043;50.998;4.754;2023-04-01T00:57:44;9.65;;;2.10;;
33714;SDS011;20043;50.998;4.754;2023-04-01T01:00:12;12.50;;;2.70;;
33714;SDS011;20043;50.998;4.754;2023-04-01T01:02:42;11.98;;;3.08;;
33714;SDS011;20043;50.998;4.754;2023-04-01T01:05:11;11.05;;;2.50;;
33714;SDS011;20043;50.998;4.754;2023-04-01T01:07:52;8.02;;;2.55;;
33714;SDS011;20043;50.998;4.754;2023-04-01T01:10:35;9.25;;;2.50;;
33714;SDS011;20043;50.998;4.754;2023-04-01T01:15:50;8.82;;;2.28;;
33714;SDS011;20043;50.998;4.754;2023-04-01T01:21:30;5.38;;;2.03;;
33714;SDS011;20043;50.998;4.754;2023-04-01T01:27:09;9.45;;;2.28;;
33714;SDS011;20043;50.998;4.754;2023-04-01T01:35:14;9.30;;;2.13;;
33714;SDS011;20043;50.998;4.754;2023-04-01T01:38:11;8.43;;;2.20;;
33714;SDS011;20043;50.998;4.754;2023-04-01T01:40:41;7.07;;;1.90;;
33714;SDS011;20043;50.998;4.754;2023-04-01T01:43:10;8.82;;;2.33;;
33714;SDS011;20043;50.998;4.754;2023-04-01T01:45:46;8.98;;;2.33;;
33714;SDS011;20043;50.998;4.754;2023-04-01T01:48:16;7.80;;;2.33;;
33714;SDS011;20043;50.998;4.754;2023-04-01T01:50:43;7.85;;;2.78;;
33714;SDS011;20043;50.998;4.754;2023-04-01T01:53:11;7.55;;;2.50;;
33714;SDS011;20043;50.998;4.754;2023-04-01T01:55:41;9.10;;;2.90;;
33714;SDS011;20043;50.998;4.754;2023-04-01T02:00:48;5.80;;;2.77;;
33714;SDS011;20043;50.998;4.754;2023-04-01T02:03:18;11.10;;;3.30;;
33714;SDS011;20043;50.998;4.754;2023-04-01T02:05:46;9.00;;;2.72;;
33714;SDS011;20043;50.998;4.754;2023-04-01T02:08:14;7.05;;;2.95;;
33714;SDS011;20043;50.998;4.754;2023-04-01T02:10:48;8.20;;;2.42;;
33714;SDS011;20043;50.998;4.754;2023-04-01T02:13:31;7.88;;;2.50;;
33714;SDS011;20043;50.998;4.754;2023-04-01T02:16:03;12.10;;;3.10;;
33714;SDS011;20043;50.998;4.754;2023-04-01T02:18:34;9.88;;;2.88;;
33714;SDS011;20043;50.998;4.754;2023-04-01T02:21:03;5.05;;;2.63;;
33714;SDS011;20043;50.998;4.754;2023-04-01T02:23:31;5.88;;;3.00;;
33714;SDS011;20043;50.998;4.754;2023-04-01T02:26:00;9.02;;;3.50;;
33714;SDS011;20043;50.998;4.754;2023-04-01T02:28:27;9.32;;;3.63;;
33714;SDS011;20043;50.998;4.754;2023-04-01T02:30:54;8.25;;;3.40;;
33714;SDS011;20043;50.998;4.754;2023-04-01T02:33:22;11.23;;;3.83;;
33714;SDS011;20043;50.998;4.754;2023-04-01T02:35:49;11.73;;;4.15;;
33714;SDS011;20043;50.998;4.754;2023-04-01T02:38:15;8.95;;;3.53;;
33714;SDS011;20043;50.998;4.754;2023-04-01T02:40:41;10.00;;;3.70;;
33714;SDS011;20043;50.998;4.754;2023-04-01T02:43:09;9.38;;;3.80;;
33714;SDS011;20043;50.998;4.754;2023-04-01T02:45:35;9.23;;;3.70;;
33714;SDS011;20043;50.998;4.754;2023-04-01T02:48:00;8.20;;;3.63;;
33714;SDS011;20043;50.998;4.754;2023-04-01T02:50:26;11.50;;;4.00;;
33714;SDS011;20043;50.998;4.754;2023-04-01T02:52:51;11.70;;;3.65;;
33714;SDS011;20043;50.998;4.754;2023-04-01T02:55:17;12.60;;;3.35;;
33714;SDS011;20043;50.998;4.754;2023-04-01T02:57:43;9.32;;;3.90;;
33714;SDS011;20043;50.998;4.754;2023-04-01T03:00:08;10.05;;;3.65;;
33714;SDS011;20043;50.998;4.754;2023-04-01T03:02:36;9.43;;;3.38;;
33714;SDS011;20043;50.998;4.754;2023-04-01T03:05:03;8.55;;;3.53;;
33714;SDS011;20043;50.998;4.754;2023-04-01T03:07:30;10.75;;;3.35;;
33714;SDS011;20043;50.998;4.754;2023-04-01T03:09:56;13.48;;;3.60;;
33714;SDS011;20043;50.998;4.754;2023-04-01T03:12:21;8.18;;;3.67;;
33714;SDS011;20043;50.998;4.754;2023-04-01T03:14:47;12.13;;;3.42;;
33714;SDS011;20043;50.998;4.754;2023-04-01T03:17:13;8.25;;;3.30;;
33714;SDS011;20043;50.998;4.754;2023-04-01T03:19:38;10.48;;;3.30;;
33714;SDS011;20043;50.998;4.754;2023-04-01T03:22:04;8.52;;;3.20;;
33714;SDS011;20043;50.998;4.754;2023-04-01T03:24:29;9.95;;;3.45;;
33714;SDS011;20043;50.998;4.754;2023-04-01T03:26:55;10.05;;;2.97;;
33714;SDS011;20043;50.998;4.754;2023-04-01T03:29:21;11.18;;;3.42;;
33714;SDS011;20043;50.998;4.754;2023-04-01T03:31:46;8.55;;;2.50;;
33714;SDS011;20043;50.998;4.754;2023-04-01T03:34:12;11.38;;;3.20;;
33714;SDS011;20043;50.998;4.754;2023-04-01T03:36:37;7.65;;;2.92;;
33714;SDS011;20043;50.998;4.754;2023-04-01T03:39:03;6.05;;;2.63;;
33714;SDS011;20043;50.998;4.754;2023-04-01T03:41:30;9.23;;;2.63;;
33714;SDS011;20043;50.998;4.754;2023-04-01T03:43:55;10.70;;;3.25;;
33714;SDS011;20043;50.998;4.754;2023-04-01T03:46:21;7.32;;;3.25;;
33714;SDS011;20043;50.998;4.754;2023-04-01T03:48:47;7.85;;;3.30;;
33714;SDS011;20043;50.998;4.754;2023-04-01T03:51:13;8.93;;;3.40;;
33714;SDS011;20043;50.998;4.754;2023-04-01T03:53:38;8.70;;;3.20;;
33714;SDS011;20043;50.998;4.754;2023-04-01T03:56:07;9.30;;;3.15;;
33714;SDS011;20043;50.998;4.754;2023-04-01T03:58:33;4.35;;;2.80;;
33714;SDS011;20043;50.998;4.754;2023-04-01T04:00:59;7.25;;;3.38;;
33714;SDS011;20043;50.998;4.754;2023-04-01T04:03:25;5.53;;;3.00;;
33714;SDS011;20043;50.998;4.754;2023-04-01T04:05:51;9.68;;;3.58;;
33714;SDS011;20043;50.998;4.754;2023-04-01T04:08:16;5.80;;;3.30;;
33714;SDS011;20043;50.998;4.754;2023-04-01T04:10:43;7.07;;;3.50;;
33714;SDS011;20043;50.998;4.754;2023-04-01T04:13:08;6.70;;;3.70;;
33714;SDS011;20043;50.998;4.754;2023-04-01T04:15:34;5.57;;;3.58;;
33714;SDS011;20043;50.998;4.754;2023-04-01T04:18:00;8.30;;;3.88;;
33714;SDS011;20043;50.998;4.754;2023-04-01T04:20:26;6.75;;;3.67;;
33714;SDS011;20043;50.998;4.754;2023-04-01T04:22:51;7.05;;;3.08;;
33714;SDS011;20043;50.998;4.754;2023-04-01T04:25:17;8.80;;;4.22;;
33714;SDS011;20043;50.998;4.754;2023-04-01T04:27:43;10.07;;;4.28;;
33714;SDS011;20043;50.998;4.754;2023-04-01T04:30:09;7.15;;;3.63;;
33714;SDS011;20043;50.998;4.754;2023-04-01T04:32:35;7.38;;;3.70;;
33714;SDS011;20043;50.998;4.754;2023-04-01T04:35:00;9.00;;;3.78;;
33714;SDS011;20043;50.998;4.754;2023-04-01T04:37:26;8.98;;;5.00;;
33714;SDS011;20043;50.998;4.754;2023-04-01T04:39:52;9.10;;;4.80;;
33714;SDS011;20043;50.998;4.754;2023-04-01T04:42:17;10.07;;;5.40;;
33714;SDS011;20043;50.998;4.754;2023-04-01T04:44:43;12.05;;;6.30;;
33714;SDS011;20043;50.998;4.754;2023-04-01T04:47:08;11.95;;;6.15;;
33714;SDS011;20043;50.998;4.754;2023-04-01T04:49:34;16.55;;;6.63;;
33714;SDS011;20043;50.998;4.754;2023-04-01T04:52:00;12.13;;;6.60;;
33714;SDS011;20043;50.998;4.754;2023-04-01T04:54:25;9.70;;;6.82;;
33714;SDS011;20043;50.998;4.754;2023-04-01T04:56:51;11.02;;;6.75;;
33714;SDS011;20043;50.998;4.754;2023-04-01T04:59:17;12.75;;;6.93;;
33714;SDS011;20043;50.998;4.754;2023-04-01T05:01:43;11.60;;;6.93;;
33714;SDS011;20043;50.998;4.754;2023-04-01T05:04:08;13.13;;;6.28;;
33714;SDS011;20043;50.998;4.754;2023-04-01T05:06:34;16.17;;;7.05;;
33714;SDS011;20043;50.998;4.754;2023-04-01T05:09:00;13.32;;;7.28;;
33714;SDS011;20043;50.998;4.754;2023-04-01T05:11:25;13.88;;;8.43;;
33714;SDS011;20043;50.998;4.754;2023-04-01T05:13:52;14.98;;;9.18;;
33714;SDS011;20043;50.998;4.754;2023-04-01T05:16:18;15.30;;;8.73;;
33714;SDS011;20043;50.998;4.754;2023-04-01T05:18:45;14.25;;;9.45;;
33714;SDS011;20043;50.998;4.754;2023-04-01T05:21:12;14.18;;;8.27;;
33714;SDS011;20043;50.998;4.754;2023-04-01T05:23:39;13.40;;;8.80;;
33714;SDS011;20043;50.998;4.754;2023-04-01T05:26:06;13.68;;;8.32;;
33714;SDS011;20043;50.998;4.754;2023-04-01T05:28:34;15.68;;;9.00;;
33714;SDS011;20043;50.998;4.754;2023-04-01T05:31:00;13.63;;;8.55;;
33714;SDS011;20043;50.998;4.754;2023-04-01T05:33:30;11.35;;;8.15;;
33714;SDS011;20043;50.998;4.754;2023-04-01T05:35:56;17.48;;;8.27;;
33714;SDS011;20043;50.998;4.754;2023-04-01T05:38:30;12.13;;;7.43;;
33714;SDS011;20043;50.998;4.754;2023-04-01T05:40:58;9.10;;;7.10;;
33714;SDS011;20043;50.998;4.754;2023-04-01T05:43:25;11.00;;;7.45;;
33714;SDS011;20043;50.998;4.754;2023-04-01T05:45:50;11.43;;;6.88;;
33714;SDS011;20043;50.998;4.754;2023-04-01T05:48:16;9.45;;;6.68;;
33714;SDS011;20043;50.998;4.754;2023-04-01T05:50:41;11.88;;;6.90;;
33714;SDS011;20043;50.998;4.754;2023-04-01T05:53:07;9.63;;;6.45;;
33714;SDS011;20043;50.998;4.754;2023-04-01T05:55:34;12.23;;;6.22;;
33714;SDS011;20043;50.998;4.754;2023-04-01T05:58:00;9.15;;;6.47;;
33714;SDS011;20043;50.998;4.754;2023-04-01T06:00:26;8.90;;;6.32;;
33714;SDS011;20043;50.998;4.754;2023-04-01T06:02:52;6.68;;;5.10;;
33714;SDS011;20043;50.998;4.754;2023-04-01T06:05:19;6.55;;;5.63;;
33714;SDS011;20043;50.998;4.754;2023-04-01T06:07:46;10.38;;;5.93;;
33714;SDS011;20043;50.998;4.754;2023-04-01T06:10:16;8.18;;;6.25;;
33714;SDS011;20043;50.998;4.754;2023-04-01T06:15:37;8.73;;;5.68;;
33714;SDS011;20043;50.998;4.754;2023-04-01T06:24:00;8.13;;;4.47;;
33714;SDS011;20043;50.998;4.754;2023-04-01T06:37:27;4.68;;;3.25;;
33714;SDS011;20043;50.998;4.754;2023-04-01T06:48:38;3.67;;;3.28;;
33714;SDS011;20043;50.998;4.754;2023-04-01T06:54:26;5.20;;;3.03;;
33714;SDS011;20043;50.998;4.754;2023-04-01T06:57:00;3.13;;;2.83;;
33714;SDS011;20043;50.998;4.754;2023-04-01T06:59:33;5.95;;;3.35;;
33714;SDS011;20043;50.998;4.754;2023-04-01T07:02:16;4.13;;;2.72;;
33714;SDS011;20043;50.998;4.754;2023-04-01T07:04:46;4.13;;;2.80;;
33714;SDS011;20043;50.998;4.754;2023-04-01T07:07:28;4.57;;;2.65;;
33714;SDS011;20043;50.998;4.754;2023-04-01T07:10:10;3.83;;;2.60;;
33714;SDS011;20043;50.998;4.754;2023-04-01T07:12:58;4.15;;;2.50;;
33714;SDS011;20043;50.998;4.754;2023-04-01T07:15:42;5.18;;;2.72;;
33714;SDS011;20043;50.998;4.754;2023-04-01T07:18:18;2.83;;;2.38;;
33714;SDS011;20043;50.998;4.754;2023-04-01T07:20:48;5.07;;;2.40;;
33714;SDS011;20043;50.998;4.754;2023-04-01T07:23:19;3.17;;;2.78;;
33714;SDS011;20043;50.998;4.754;2023-04-01T07:25:47;3.88;;;2.60;;
33714;SDS011;20043;50.998;4.754;2023-04-01T07:28:18;3.00;;;2.28;;
33714;SDS011;20043;50.998;4.754;2023-04-01T07:30:53;6.38;;;2.38;;
33714;SDS011;20043;50.998;4.754;2023-04-01T07:36:32;3.80;;;2.40;;
33714;SDS011;20043;50.998;4.754;2023-04-01T07:47:50;2.67;;;1.85;;
33714;SDS011;20043;50.998;4.754;2023-04-01T07:50:27;4.10;;;2.00;;
33714;SDS011;20043;50.998;4.754;2023-04-01T07:53:02;7.03;;;2.10;;
33714;SDS011;20043;50.998;4.754;2023-04-01T07:55:45;5.05;;;2.03;;
33714;SDS011;20043;50.998;4.754;2023-04-01T08:01:16;2.72;;;2.17;;
33714;SDS011;20043;50.998;4.754;2023-04-01T08:08:59;2.60;;;2.40;;
33714;SDS011;20043;50.998;4.754;2023-04-01T08:14:24;5.55;;;3.25;;
33714;SDS011;20043;50.998;4.754;2023-04-01T08:17:07;4.93;;;3.20;;
33714;SDS011;20043;50.998;4.754;2023-04-01T08:22:42;5.25;;;3.30;;
33714;SDS011;20043;50.998;4.754;2023-04-01T08:25:25;5.43;;;3.20;;
33714;SDS011;20043;50.998;4.754;2023-04-01T08:27:55;4.95;;;3.30;;
33714;SDS011;20043;50.998;4.754;2023-04-01T08:30:26;5.18;;;2.92;;
33714;SDS011;20043;50.998;4.754;2023-04-01T08:33:05;3.67;;;3.10;;
33714;SDS011;20043;50.998;4.754;2023-04-01T08:35:45;7.05;;;3.47;;
33714;SDS011;20043;50.998;4.754;2023-04-01T08:47:09;4.13;;;3.15;;
33714;SDS011;20043;50.998;4.754;2023-04-01T08:57:15;4.55;;;2.45;;
33714;SDS011;20043;50.998;4.754;2023-04-01T09:10:57;3.45;;;1.67;;
33714;SDS011;20043;50.998;4.754;2023-04-01T09:13:42;3.47;;;1.90;;
33714;SDS011;20043;50.998;4.754;2023-04-01T09:16:27;2.15;;;1.70;;
33714;SDS011;20043;50.998;4.754;2023-04-01T09:19:30;1.92;;;1.70;;
33714;SDS011;20043;50.998;4.754;2023-04-01T09:25:12;2.28;;;1.65;;
33714;SDS011;20043;50.998;4.754;2023-04-01T09:27:56;4.20;;;1.83;;
33714;SDS011;20043;50.998;4.754;2023-04-01T09:44:25;3.25;;;2.20;;
33714;SDS011;20043;50.998;4.754;2023-04-01T09:49:50;2.80;;;1.88;;
33714;SDS011;20043;50.998;4.754;2023-04-01T09:52:38;3.42;;;1.90;;
33714;SDS011;20043;50.998;4.754;2023-04-01T10:23:44;3.45;;;2.88;;
33714;SDS011;20043;50.998;4.754;2023-04-01T10:26:31;5.78;;;3.80;;
33714;SDS011;20043;50.998;4.754;2023-04-01T10:40:24;8.68;;;7.70;;
33714;SDS011;20043;50.998;4.754;2023-04-01T10:43:21;10.00;;;7.93;;
33714;SDS011;20043;50.998;4.754;2023-04-01T11:08:57;13.07;;;10.77;;
33714;SDS011;20043;50.998;4.754;2023-04-01T11:12:03;11.65;;;10.35;;
33714;SDS011;20043;50.998;4.754;2023-04-01T11:20:38;16.63;;;11.60;;
33714;SDS011;20043;50.998;4.754;2023-04-01T11:25:56;9.90;;;7.57;;
33714;SDS011;20043;50.998;4.754;2023-04-01T11:31:50;7.47;;;6.07;;
33714;SDS011;20043;50.998;4.754;2023-04-01T11:34:28;6.70;;;5.53;;
33714;SDS011;20043;50.998;4.754;2023-04-01T11:42:57;7.82;;;5.47;;
33714;SDS011;20043;50.998;4.754;2023-04-01T11:45:36;9.25;;;6.45;;
33714;SDS011;20043;50.998;4.754;2023-04-01T11:56:14;8.85;;;5.60;;
33714;SDS011;20043;50.998;4.754;2023-04-01T11:58:56;7.25;;;6.40;;
33714;SDS011;20043;50.998;4.754;2023-04-01T12:01:43;9.27;;;6.88;;
33714;SDS011;20043;50.998;4.754;2023-04-01T12:10:20;37.72;;;7.75;;
33714;SDS011;20043;50.998;4.754;2023-04-01T12:15:52;7.80;;;6.60;;
33714;SDS011;20043;50.998;4.754;2023-04-01T12:24:25;9.48;;;6.65;;
33714;SDS011;20043;50.998;4.754;2023-04-01T12:34:53;8.52;;;7.00;;
33714;SDS011;20043;50.998;4.754;2023-04-01T12:40:45;8.45;;;7.00;;
33714;SDS011;20043;50.998;4.754;2023-04-01T12:54:57;10.02;;;7.20;;
33714;SDS011;20043;50.998;4.754;2023-04-01T12:57:53;7.47;;;6.78;;
33714;SDS011;20043;50.998;4.754;2023-04-01T13:14:31;7.18;;;4.63;;
33714;SDS011;20043;50.998;4.754;2023-04-01T13:22:27;3.90;;;3.50;;
33714;SDS011;20043;50.998;4.754;2023-04-01T13:27:44;6.88;;;3.20;;
33714;SDS011;20043;50.998;4.754;2023-04-01T13:32:47;8.80;;;3.63;;
33714;SDS011;20043;50.998;4.754;2023-04-01T13:35:37;2.67;;;2.47;;
33714;SDS011;20043;50.998;4.754;2023-04-01T13:51:08;2.75;;;1.92;;
33714;SDS011;20043;50.998;4.754;2023-04-01T13:56:42;1.40;;;1.30;;
33714;SDS011;20043;50.998;4.754;2023-04-01T14:10:07;4.32;;;1.67;;
33714;SDS011;20043;50.998;4.754;2023-04-01T14:12:56;2.25;;;1.40;;
33714;SDS011;20043;50.998;4.754;2023-04-01T14:41:58;1.70;;;1.60;;
33714;SDS011;20043;50.998;4.754;2023-04-01T14:58:15;3.75;;;1.65;;
33714;SDS011;20043;50.998;4.754;2023-04-01T15:03:30;5.90;;;1.75;;
33714;SDS011;20043;50.998;4.754;2023-04-01T15:17:41;3.97;;;0.85;;
33714;SDS011;20043;50.998;4.754;2023-04-01T15:37:17;1.88;;;0.63;;
33714;SDS011;20043;50.998;4.754;2023-04-01T15:40:15;0.80;;;0.60;;
33714;SDS011;20043;50.998;4.754;2023-04-01T15:42:58;5.13;;;1.00;;
33714;SDS011;20043;50.998;4.754;2023-04-01T16:00:27;3.28;;;2.53;;
33714;SDS011;20043;50.998;4.754;2023-04-01T16:05:27;4.40;;;2.92;;
33714;SDS011;20043;50.998;4.754;2023-04-01T16:08:14;3.95;;;3.03;;
33714;SDS011;20043;50.998;4.754;2023-04-01T16:10:54;6.47;;;3.78;;
33714;SDS011;20043;50.998;4.754;2023-04-01T16:13:28;6.43;;;3.72;;
33714;SDS011;20043;50.998;4.754;2023-04-01T16:19:21;4.60;;;3.00;;
33714;SDS011;20043;50.998;4.754;2023-04-01T16:22:13;9.25;;;3.17;;
33714;SDS011;20043;50.998;4.754;2023-04-01T16:24:57;5.28;;;2.38;;
33714;SDS011;20043;50.998;4.754;2023-04-01T16:27:42;5.68;;;2.42;;
33714;SDS011;20043;50.998;4.754;2023-04-01T16:30:38;2.78;;;2.05;;
33714;SDS011;20043;50.998;4.754;2023-04-01T16:33:15;2.45;;;1.88;;
33714;SDS011;20043;50.998;4.754;2023-04-01T16:35:58;2.92;;;1.88;;
33714;SDS011;20043;50.998;4.754;2023-04-01T16:38:39;4.43;;;1.85;;
33714;SDS011;20043;50.998;4.754;2023-04-01T16:41:25;4.45;;;2.08;;
33714;SDS011;20043;50.998;4.754;2023-04-01T16:44:08;3.55;;;1.70;;
33714;SDS011;20043;50.998;4.754;2023-04-01T16:49:51;5.47;;;1.80;;
33714;SDS011;20043;50.998;4.754;2023-04-01T16:52:36;3.42;;;1.77;;
33714;SDS011;20043;50.998;4.754;2023-04-01T16:55:34;4.78;;;1.90;;
33714;SDS011;20043;50.998;4.754;2023-04-01T16:58:18;3.55;;;1.85;;
33714;SDS011;20043;50.998;4.754;2023-04-01T17:01:02;3.47;;;2.42;;
33714;SDS011;20043;50.998;4.754;2023-04-01T17:03:33;3.97;;;2.25;;
33714;SDS011;20043;50.998;4.754;2023-04-01T17:09:01;3.83;;;2.08;;
33714;SDS011;20043;50.998;4.754;2023-04-01T17:19:26;1.70;;;1.60;;
33714;SDS011;20043;50.998;4.754;2023-04-01T17:22:33;4.93;;;2.25;;
33714;SDS011;20043;50.998;4.754;2023-04-01T17:28:20;3.75;;;2.50;;
33714;SDS011;20043;50.998;4.754;2023-04-01T17:33:52;4.18;;;2.40;;
33714;SDS011;20043;50.998;4.754;2023-04-01T17:36:44;3.20;;;2.65;;
33714;SDS011;20043;50.998;4.754;2023-04-01T17:42:05;4.10;;;2.80;;
33714;SDS011;20043;50.998;4.754;2023-04-01T17:47:10;5.03;;;2.78;;
33714;SDS011;20043;50.998;4.754;2023-04-01T17:50:18;4.25;;;3.10;;
33714;SDS011;20043;50.998;4.754;2023-04-01T17:53:01;4.45;;;2.80;;
33714;SDS011;20043;50.998;4.754;2023-04-01T17:58:34;5.18;;;3.15;;
33714;SDS011;20043;50.998;4.754;2023-04-01T18:01:18;5.82;;;3.25;;
33714;SDS011;20043;50.998;4.754;2023-04-01T18:07:17;4.50;;;3.50;;
33714;SDS011;20043;50.998;4.754;2023-04-01T18:18:37;7.78;;;4.55;;
33714;SDS011;20043;50.998;4.754;2023-04-01T18:21:29;9.45;;;5.45;;
33714;SDS011;20043;50.998;4.754;2023-04-01T18:24:19;9.23;;;6.63;;
33714;SDS011;20043;50.998;4.754;2023-04-01T18:37:39;11.57;;;8.02;;
33714;SDS011;20043;50.998;4.754;2023-04-01T18:45:35;16.83;;;10.23;;
33714;SDS011;20043;50.998;4.754;2023-04-01T18:48:15;12.77;;;9.57;;
33714;SDS011;20043;50.998;4.754;2023-04-01T18:53:41;16.15;;;11.20;;
33714;SDS011;20043;50.998;4.754;2023-04-01T18:56:32;16.55;;;11.77;;
33714;SDS011;20043;50.998;4.754;2023-04-01T19:01:28;19.75;;;13.20;;
33714;SDS011;20043;50.998;4.754;2023-04-01T19:07:21;22.40;;;14.50;;
33714;SDS011;20043;50.998;4.754;2023-04-01T19:10:16;20.20;;;14.85;;
33714;SDS011;20043;50.998;4.754;2023-04-01T19:12:44;26.05;;;14.88;;
33714;SDS011;20043;50.998;4.754;2023-04-01T19:18:25;23.70;;;15.38;;
33714;SDS011;20043;50.998;4.754;2023-04-01T19:21:11;23.67;;;16.85;;
33714;SDS011;20043;50.998;4.754;2023-04-01T19:32:14;28.85;;;17.02;;
33714;SDS011;20043;50.998;4.754;2023-04-01T19:37:40;32.15;;;17.33;;
33714;SDS011;20043;50.998;4.754;2023-04-01T19:40:42;27.63;;;17.13;;
33714;SDS011;20043;50.998;4.754;2023-04-01T19:43:16;27.20;;;18.23;;
33714;SDS011;20043;50.998;4.754;2023-04-01T19:45:54;29.98;;;18.88;;
33714;SDS011;20043;50.998;4.754;2023-04-01T19:51:18;29.13;;;18.05;;
33714;SDS011;20043;50.998;4.754;2023-04-01T19:56:30;26.80;;;17.02;;
33714;SDS011;20043;50.998;4.754;2023-04-01T20:07:15;31.35;;;20.02;;
33714;SDS011;20043;50.998;4.754;2023-04-01T20:15:06;32.92;;;22.17;;
33714;SDS011;20043;50.998;4.754;2023-04-01T20:17:50;32.22;;;22.05;;
33714;SDS011;20043;50.998;4.754;2023-04-01T20:20:19;34.33;;;24.13;;
33714;SDS011;20043;50.998;4.754;2023-04-01T20:22:55;33.72;;;22.85;;
33714;SDS011;20043;50.998;4.754;2023-04-01T20:25:46;35.67;;;24.23;;
33714;SDS011;20043;50.998;4.754;2023-04-01T20:28:25;34.60;;;23.55;;
33714;SDS011;20043;50.998;4.754;2023-04-01T20:42:02;34.47;;;22.60;;
33714;SDS011;20043;50.998;4.754;2023-04-01T20:44:51;33.45;;;23.30;;
33714;SDS011;20043;50.998;4.754;2023-04-01T20:47:28;35.45;;;22.00;;
33714;SDS011;20043;50.998;4.754;2023-04-01T20:50:28;33.38;;;23.88;;
33714;SDS011;20043;50.998;4.754;2023-04-01T20:58:42;32.45;;;22.27;;
33714;SDS011;20043;50.998;4.754;2023-04-01T21:10:02;21.88;;;17.00;;
33714;SDS011;20043;50.998;4.754;2023-04-01T21:18:13;21.08;;;16.52;;
33714;SDS011;20043;50.998;4.754;2023-04-01T21:20:48;18.35;;;15.95;;
33714;SDS011;20043;50.998;4.754;2023-04-01T21:24:28;20.13;;;16.73;;
33714;SDS011;20043;50.998;4.754;2023-04-01T21:29:28;22.90;;;18.55;;
33714;SDS011;20043;50.998;4.754;2023-04-01T21:38:01;24.70;;;20.00;;
33714;SDS011;20043;50.998;4.754;2023-04-01T22:06:40;28.45;;;23.77;;
33714;SDS011;20043;50.998;4.754;2023-04-01T22:23:09;19.00;;;17.00;;
33714;SDS011;20043;50.998;4.754;2023-04-01T22:25:59;20.60;;;18.40;;
33714;SDS011;20043;50.998;4.754;2023-04-01T22:28:48;20.60;;;18.02;;
33714;SDS011;20043;50.998;4.754;2023-04-01T22:31:26;21.48;;;18.70;;
33714;SDS011;20043;50.998;4.754;2023-04-01T22:42:36;31.80;;;25.65;;
33714;SDS011;20043;50.998;4.754;2023-04-01T22:45:04;35.53;;;28.60;;
33714;SDS011;20043;50.998;4.754;2023-04-01T22:50:26;31.85;;;26.38;;
33714;SDS011;20043;50.998;4.754;2023-04-01T22:55:49;33.30;;;27.73;;
33714;SDS011;20043;50.998;4.754;2023-04-01T22:58:21;35.22;;;28.27;;
33714;SDS011;20043;50.998;4.754;2023-04-01T23:00:56;36.47;;;28.75;;
33714;SDS011;20043;50.998;4.754;2023-04-01T23:03:32;29.83;;;24.95;;
33714;SDS011;20043;50.998;4.754;2023-04-01T23:06:05;27.65;;;24.08;;
33714;SDS011;20043;50.998;4.754;2023-04-01T23:08:43;24.25;;;21.63;;
33714;SDS011;20043;50.998;4.754;2023-04-01T23:16:46;18.40;;;16.20;;
33714;SDS011;20043;50.998;4.754;2023-04-01T23:19:28;18.67;;;16.50;;
33714;SDS011;20043;50.998;4.754;2023-04-01T23:22:02;18.45;;;16.40;;
33714;SDS011;20043;50.998;4.754;2023-04-01T23:24:38;17.15;;;15.32;;
33714;SDS011;20043;50.998;4.754;2023-04-01T23:30:04;15.02;;;13.52;;
33714;SDS011;20043;50.998;4.754;2023-04-01T23:32:49;16.25;;;13.70;;
33714;SDS011;20043;50.998;4.754;2023-04-01T23:35:15;15.48;;;12.63;;
33714;SDS011;20043;50.998;4.754;2023-04-01T23:37:41;14.88;;;11.57;;
33714;SDS011;20043;50.998;4.754;2023-04-01T23:40:10;12.88;;;11.48;;
33714;SDS011;20043;50.998;4.754;2023-04-01T23:42:38;12.98;;;11.32;;
33714;SDS011;20043;50.998;4.754;2023-04-01T23:45:11;12.27;;;10.98;;
33714;SDS011;20043;50.998;4.754;2023-04-01T23:47:42;12.15;;;10.90;;
33714;SDS011;20043;50.998;4.754;2023-04-01T23:50:20;11.98;;;10.77;;
33714;SDS011;20043;50.998;4.754;2023-04-01T23:52:52;12.10;;;9.48;;
33714;SDS011;20043;50.998;4.754;2023-04-01T23:55:32;10.95;;;9.50;;
